createdAt,value
2023-02-11T00:00:42.621Z,36.81
2023-02-11T00:03:09.880Z,36.76
2023-02-11T00:05:36.637Z,36.83
2023-02-11T00:08:03.729Z,36.62
2023-02-11T00:10:30.454Z,36.44
2023-02-11T00:12:57.083Z,36.22
2023-02-11T00:15:23.682Z,36.35
2023-02-11T00:17:50.394Z,36.23
2023-02-11T00:20:17.239Z,36.10
2023-02-11T00:22:43.878Z,36.05
2023-02-11T00:25:10.521Z,35.97
2023-02-11T00:27:37.629Z,35.90
2023-02-11T00:30:05.418Z,35.70
2023-02-11T00:32:32.204Z,35.65
2023-02-11T00:34:58.873Z,35.74
2023-02-11T00:37:25.561Z,35.66
2023-02-11T00:39:52.292Z,35.72
2023-02-11T00:42:18.892Z,35.68
2023-02-11T00:44:45.656Z,35.41
2023-02-11T00:47:12.560Z,35.54
2023-02-11T00:49:40.478Z,35.25
2023-02-11T00:52:07.378Z,35.20
2023-02-11T00:54:34.596Z,35.51
2023-02-11T00:57:01.433Z,35.80
2023-02-11T00:59:28.371Z,35.97
2023-02-11T01:01:55.077Z,35.89
2023-02-11T01:04:21.808Z,36.22
2023-02-11T01:06:52.235Z,36.65
2023-02-11T01:09:21.216Z,36.96
2023-02-11T01:11:48.261Z,37.21
2023-02-11T01:14:15.062Z,37.48
2023-02-11T01:16:42.580Z,38.04
2023-02-11T01:19:09.817Z,37.95
2023-02-11T01:21:36.717Z,37.84
2023-02-11T01:24:03.645Z,38.18
2023-02-11T01:26:30.398Z,38.21
2023-02-11T01:29:00.140Z,38.94
2023-02-11T01:31:27.890Z,39.04
2023-02-11T01:33:54.674Z,39.23
2023-02-11T01:36:21.320Z,38.97
2023-02-11T01:38:49.932Z,39.32
2023-02-11T01:41:16.746Z,39.76
2023-02-11T01:43:50.160Z,40.00
2023-02-11T01:46:31.930Z,40.14
2023-02-11T01:49:07.432Z,40.62
2023-02-11T01:51:39.491Z,40.41
2023-02-11T01:54:27.709Z,40.98
2023-02-11T01:57:17.123Z,41.14
2023-02-11T01:59:54.889Z,41.34
2023-02-11T02:02:27.285Z,41.62
2023-02-11T02:04:57.564Z,41.96
2023-02-11T02:07:46.078Z,42.22
2023-02-11T02:10:18.840Z,42.26
2023-02-11T02:12:46.371Z,42.32
2023-02-11T02:15:20.447Z,41.98
2023-02-11T02:17:58.759Z,42.18
2023-02-11T02:20:47.123Z,42.39
2023-02-11T02:23:39.747Z,42.35
2023-02-11T02:26:31.400Z,42.59
2023-02-11T02:29:19.299Z,42.59
2023-02-11T02:32:03.853Z,42.91
2023-02-11T02:34:42.150Z,43.12
2023-02-11T02:37:17.381Z,42.81
2023-02-11T02:39:46.612Z,42.93
2023-02-11T02:42:14.517Z,42.79
2023-02-11T02:44:41.250Z,42.75
2023-02-11T02:47:07.868Z,42.72
2023-02-11T02:49:34.498Z,43.16
2023-02-11T02:52:18.550Z,43.36
2023-02-11T02:55:11.773Z,43.43
2023-02-11T02:57:50.415Z,43.11
2023-02-11T03:00:23.561Z,42.69
2023-02-11T03:02:59.386Z,42.94
2023-02-11T03:05:45.256Z,43.02
2023-02-11T03:08:30.559Z,43.25
2023-02-11T03:10:59.225Z,43.18
2023-02-11T03:13:33.571Z,43.00
2023-02-11T03:16:08.538Z,43.57
2023-02-11T03:18:38.249Z,43.34
2023-02-11T03:21:07.266Z,43.46
2023-02-11T03:23:41.361Z,43.50
2023-02-11T03:26:10.403Z,43.61
2023-02-11T03:28:52.579Z,43.85
2023-02-11T03:31:32.892Z,43.95
2023-02-11T03:34:08.750Z,43.81
2023-02-11T03:37:04.378Z,43.71
2023-02-11T03:39:37.770Z,43.58
2023-02-11T03:42:08.705Z,43.61
2023-02-11T03:44:42.092Z,43.72
2023-02-11T03:47:12.443Z,43.72
2023-02-11T03:49:42.540Z,43.67
2023-02-11T03:52:11.564Z,43.80
2023-02-11T03:54:42.253Z,43.94
2023-02-11T03:57:09.237Z,43.98
2023-02-11T03:59:51.374Z,44.41
2023-02-11T04:02:18.748Z,44.28
2023-02-11T04:04:46.375Z,44.30
2023-02-11T04:07:13.236Z,44.31
2023-02-11T04:09:39.894Z,44.23
2023-02-11T04:12:06.927Z,44.19
2023-02-11T04:14:33.709Z,44.42
2023-02-11T04:17:00.371Z,44.63
2023-02-11T04:19:27.042Z,44.61
2023-02-11T04:21:53.632Z,44.39
2023-02-11T04:24:20.296Z,44.40
2023-02-11T04:26:47.049Z,44.68
2023-02-11T04:29:13.687Z,44.88
2023-02-11T04:31:40.506Z,44.89
2023-02-11T04:34:07.114Z,44.79
2023-02-11T04:36:33.794Z,44.97
2023-02-11T04:39:00.524Z,44.88
2023-02-11T04:41:27.327Z,45.14
2023-02-11T04:43:53.938Z,45.08
2023-02-11T04:46:20.779Z,44.88
2023-02-11T04:48:47.475Z,44.86
2023-02-11T04:51:14.342Z,45.58
2023-02-11T04:53:41.334Z,45.41
2023-02-11T04:56:08.165Z,45.06
2023-02-11T04:58:34.936Z,45.19
2023-02-11T05:01:14.064Z,45.43
2023-02-11T05:03:41.232Z,45.28
2023-02-11T05:06:09.770Z,45.28
2023-02-11T05:08:36.382Z,45.06
2023-02-11T05:11:03.196Z,45.15
2023-02-11T05:13:30.189Z,45.26
2023-02-11T05:15:57.075Z,45.53
2023-02-11T05:18:24.086Z,45.28
2023-02-11T05:20:50.720Z,45.23
2023-02-11T05:23:17.371Z,45.17
2023-02-11T05:25:43.993Z,45.31
2023-02-11T05:28:10.680Z,45.30
2023-02-11T05:30:37.420Z,45.23
2023-02-11T05:33:04.116Z,45.63
2023-02-11T05:35:30.763Z,45.50
2023-02-11T05:37:57.403Z,45.43
2023-02-11T05:40:24.037Z,45.46
2023-02-11T05:42:50.705Z,45.79
2023-02-11T05:45:17.336Z,45.70
2023-02-11T05:47:43.922Z,45.47
2023-02-11T05:50:10.546Z,45.75
2023-02-11T05:52:37.238Z,45.80
2023-02-11T05:55:04.403Z,45.59
2023-02-11T05:57:30.997Z,45.61
2023-02-11T05:59:57.647Z,45.50
2023-02-11T06:02:24.449Z,45.67
2023-02-11T06:04:51.129Z,45.78
2023-02-11T06:07:19.705Z,45.65
2023-02-11T06:09:46.335Z,45.81
2023-02-11T06:12:13.119Z,45.61
2023-02-11T06:14:39.906Z,45.69
2023-02-11T06:17:06.619Z,45.95
2023-02-11T06:19:33.349Z,45.49
2023-02-11T06:22:00.108Z,45.59
2023-02-11T06:24:51.087Z,45.78
2023-02-11T06:27:13.994Z,45.73
2023-02-11T06:29:40.741Z,45.53
2023-02-11T06:32:10.089Z,45.61
2023-02-11T06:34:42.790Z,45.79
2023-02-11T06:37:09.428Z,45.74
2023-02-11T06:39:36.092Z,45.75
2023-02-11T06:42:02.800Z,45.56
2023-02-11T06:44:29.401Z,45.71
2023-02-11T06:46:55.955Z,45.63
2023-02-11T06:49:22.582Z,45.87
2023-02-11T06:51:49.188Z,45.66
2023-02-11T06:54:15.913Z,45.73
2023-02-11T06:56:42.554Z,45.93
2023-02-11T06:59:12.944Z,45.86
2023-02-11T07:01:39.565Z,46.11
2023-02-11T07:04:06.897Z,46.10
2023-02-11T07:06:34.020Z,46.24
2023-02-11T07:09:00.723Z,46.23
2023-02-11T07:11:29.151Z,46.28
2023-02-11T07:14:02.839Z,46.68
2023-02-11T07:16:29.977Z,46.56
2023-02-11T07:18:56.592Z,46.55
2023-02-11T07:21:24.389Z,46.76
2023-02-11T07:23:52.017Z,46.55
2023-02-11T07:26:23.009Z,46.33
2023-02-11T07:28:50.954Z,46.45
2023-02-11T07:31:27.837Z,46.20
2023-02-11T07:33:57.028Z,46.34
2023-02-11T07:36:23.819Z,46.16
2023-02-11T07:38:50.545Z,46.20
2023-02-11T07:41:21.345Z,46.06
2023-02-11T07:43:48.427Z,45.62
2023-02-11T07:46:20.896Z,45.17
2023-02-11T07:48:47.758Z,45.41
2023-02-11T07:51:20.519Z,45.52
2023-02-11T07:53:47.601Z,45.68
2023-02-11T07:56:15.879Z,45.11
2023-02-11T07:58:43.686Z,45.25
2023-02-11T08:01:12.875Z,44.97
2023-02-11T08:03:41.397Z,45.05
2023-02-11T08:06:11.222Z,44.82
2023-02-11T08:08:37.940Z,44.67
2023-02-11T08:11:13.155Z,44.58
2023-02-11T08:13:40.395Z,43.58
2023-02-11T08:16:07.998Z,43.08
2023-02-11T08:18:35.365Z,42.60
2023-02-11T08:21:06.739Z,42.17
2023-02-11T08:23:33.924Z,42.12
2023-02-11T08:26:05.376Z,42.30
2023-02-11T08:28:32.219Z,42.74
2023-02-11T08:31:04.637Z,42.40
2023-02-11T08:33:31.296Z,42.28
2023-02-11T08:35:57.947Z,41.81
2023-02-11T08:38:24.543Z,41.55
2023-02-11T08:40:51.429Z,41.71
2023-02-11T08:43:18.314Z,41.57
2023-02-11T08:45:45.070Z,41.39
2023-02-11T08:48:11.682Z,41.29
2023-02-11T08:50:39.782Z,41.27
2023-02-11T08:53:06.423Z,40.86
2023-02-11T08:55:33.033Z,41.13
2023-02-11T08:57:59.661Z,41.22
2023-02-11T09:00:26.305Z,41.41
2023-02-11T09:02:53.605Z,41.37
2023-02-11T09:05:20.208Z,41.33
2023-02-11T09:07:46.838Z,41.27
2023-02-11T09:10:13.510Z,41.36
2023-02-11T09:12:40.148Z,41.79
2023-02-11T09:15:07.259Z,42.30
2023-02-11T09:17:33.921Z,42.16
2023-02-11T09:20:00.814Z,42.18
2023-02-11T09:22:27.468Z,42.50
2023-02-11T09:24:54.115Z,42.27
2023-02-11T09:27:20.866Z,42.28
2023-02-11T09:29:47.541Z,42.39
2023-02-11T09:32:14.341Z,42.07
2023-02-11T09:34:41.426Z,42.15
2023-02-11T09:37:08.096Z,42.36
2023-02-11T09:39:34.723Z,42.32
2023-02-11T09:42:07.074Z,42.35
2023-02-11T09:44:35.504Z,42.38
2023-02-11T09:47:06.359Z,41.80
2023-02-11T09:49:59.056Z,41.99
2023-02-11T09:52:44.008Z,41.84
2023-02-11T09:55:37.744Z,41.84
2023-02-11T09:58:12.613Z,41.99
2023-02-11T10:00:52.907Z,42.42
2023-02-11T10:03:48.770Z,42.11
2023-02-11T10:06:40.286Z,41.80
2023-02-11T10:09:48.112Z,41.97
2023-02-11T10:12:20.649Z,42.09
2023-02-11T10:15:06.036Z,42.05
2023-02-11T10:17:48.186Z,41.81
2023-02-11T10:20:20.929Z,41.93
2023-02-11T10:22:54.568Z,41.66
2023-02-11T10:25:36.579Z,42.02
2023-02-11T10:28:19.700Z,41.92
2023-02-11T10:30:53.104Z,41.81
2023-02-11T10:33:47.911Z,41.69
2023-02-11T10:36:17.577Z,41.63
2023-02-11T10:38:45.289Z,41.57
2023-02-11T10:41:26.285Z,41.62
2023-02-11T10:43:53.035Z,41.50
2023-02-11T10:46:24.366Z,41.13
2023-02-11T10:48:54.020Z,41.46
2023-02-11T10:51:25.556Z,41.59
2023-02-11T10:54:04.276Z,41.56
2023-02-11T10:56:34.649Z,41.69
2023-02-11T10:59:20.343Z,41.64
2023-02-11T11:02:00.979Z,41.63
2023-02-11T11:04:30.904Z,41.28
2023-02-11T11:07:18.163Z,41.24
2023-02-11T11:10:02.558Z,40.81
2023-02-11T11:12:31.699Z,40.67
2023-02-11T11:14:59.936Z,40.49
2023-02-11T11:17:29.897Z,40.42
2023-02-11T11:20:20.414Z,40.21
2023-02-11T11:22:52.762Z,39.68
2023-02-11T11:25:30.614Z,39.25
2023-02-11T11:28:01.015Z,38.64
2023-02-11T11:30:34.059Z,39.09
2023-02-11T11:33:02.026Z,38.84
2023-02-11T11:35:33.066Z,38.97
2023-02-11T11:38:05.403Z,39.00
2023-02-11T11:40:34.218Z,38.70
2023-02-11T11:43:30.163Z,38.71
2023-02-11T11:45:59.688Z,38.47
2023-02-11T11:48:40.334Z,38.99
2023-02-11T11:51:12.159Z,38.98
2023-02-11T11:53:38.796Z,39.69
2023-02-11T11:56:19.978Z,40.10
2023-02-11T11:58:47.225Z,40.34
2023-02-11T12:01:38.177Z,40.43
2023-02-11T12:04:28.557Z,40.13
2023-02-11T12:07:25.714Z,41.23
2023-02-11T12:10:15.162Z,40.91
2023-02-11T12:12:55.924Z,38.34
2023-02-11T12:15:30.035Z,37.86
2023-02-11T12:18:24.828Z,37.49
2023-02-11T12:21:04.344Z,37.50
2023-02-11T12:24:07.434Z,37.12
2023-02-11T12:26:53.338Z,37.27
2023-02-11T12:29:31.942Z,36.90
2023-02-11T12:32:25.665Z,37.62
2023-02-11T12:35:01.661Z,37.73
2023-02-11T12:37:49.600Z,37.73
2023-02-11T12:40:20.135Z,36.46
2023-02-11T12:43:18.032Z,37.39
2023-02-11T12:46:00.955Z,36.86
2023-02-11T12:49:00.294Z,36.93
2023-02-11T12:51:42.101Z,36.21
2023-02-11T12:54:21.727Z,36.03
2023-02-11T12:57:07.456Z,36.18
2023-02-11T13:00:11.873Z,35.64
2023-02-11T13:02:49.624Z,35.11
2023-02-11T13:05:25.053Z,34.58
2023-02-11T13:07:56.038Z,34.40
2023-02-11T13:10:28.154Z,34.45
2023-02-11T13:13:16.088Z,34.18
2023-02-11T13:15:58.697Z,33.73
2023-02-11T13:19:16.833Z,34.23
2023-02-11T13:22:11.424Z,34.51
2023-02-11T13:25:06.151Z,34.19
2023-02-11T13:27:44.034Z,33.87
2023-02-11T13:30:28.182Z,34.28
2023-02-11T13:32:54.851Z,34.46
2023-02-11T13:35:32.329Z,34.37
2023-02-11T13:38:01.535Z,33.86
2023-02-11T13:40:39.599Z,34.37
2023-02-11T13:43:07.547Z,35.03
2023-02-11T13:45:38.641Z,35.49
2023-02-11T13:48:13.639Z,35.74
2023-02-11T13:50:48.481Z,35.97
2023-02-11T13:53:17.140Z,36.24
2023-02-11T13:55:47.389Z,36.55
2023-02-11T13:58:13.969Z,37.09
2023-02-11T14:00:40.596Z,36.96
2023-02-11T14:03:32.202Z,36.63
2023-02-11T14:06:26.742Z,36.45
2023-02-11T14:09:09.186Z,36.51
2023-02-11T14:11:41.902Z,36.78
2023-02-11T14:14:16.245Z,37.36
2023-02-11T14:16:58.258Z,37.52
2023-02-11T14:19:30.797Z,37.37
2023-02-11T14:22:04.318Z,37.52
2023-02-11T14:24:33.948Z,37.23
2023-02-11T14:27:00.483Z,37.03
2023-02-11T14:29:58.290Z,36.83
2023-02-11T14:32:56.008Z,36.74
2023-02-11T14:35:41.738Z,36.82
2023-02-11T14:38:35.796Z,36.82
2023-02-11T14:41:22.480Z,36.81
2023-02-11T14:43:53.069Z,37.16
2023-02-11T14:46:22.327Z,37.18
2023-02-11T14:48:53.396Z,37.32
2023-02-11T14:51:27.833Z,37.04
2023-02-11T14:54:15.289Z,36.83
2023-02-11T14:56:42.458Z,36.93
2023-02-11T14:59:21.205Z,37.37
2023-02-11T15:01:51.211Z,37.26
2023-02-11T15:04:32.874Z,36.69
2023-02-11T15:07:04.845Z,36.55
2023-02-11T15:09:41.297Z,36.97
2023-02-11T15:12:20.243Z,36.99
2023-02-11T15:14:49.590Z,37.18
2023-02-11T15:17:22.242Z,37.34
2023-02-11T15:19:53.275Z,37.32
2023-02-11T15:22:24.070Z,37.41
2023-02-11T15:25:03.999Z,37.84
2023-02-11T15:27:42.393Z,37.76
2023-02-11T15:30:24.591Z,37.81
2023-02-11T15:33:00.390Z,37.80
2023-02-11T15:35:28.800Z,37.95
2023-02-11T15:37:57.431Z,37.64
2023-02-11T15:40:30.170Z,37.74
2023-02-11T15:42:59.950Z,37.94
2023-02-11T15:45:32.694Z,38.37
2023-02-11T15:48:21.676Z,38.70
2023-02-11T15:50:52.966Z,38.75
2023-02-11T15:53:28.953Z,39.07
2023-02-11T15:56:17.619Z,39.40
2023-02-11T15:58:47.619Z,39.46
2023-02-11T16:01:14.499Z,39.64
2023-02-11T16:03:43.107Z,39.81
2023-02-11T16:06:25.005Z,40.00
2023-02-11T16:09:22.276Z,40.21
2023-02-11T16:11:48.913Z,40.37
2023-02-11T16:14:27.836Z,40.44
2023-02-11T16:16:56.015Z,40.27
2023-02-11T16:19:25.933Z,40.33
2023-02-11T16:21:54.396Z,40.42
2023-02-11T16:24:28.242Z,40.58
2023-02-11T16:27:03.420Z,40.67
2023-02-11T16:29:32.489Z,40.68
2023-02-11T16:32:09.334Z,40.77
2023-02-11T16:34:37.237Z,40.97
2023-02-11T16:37:05.554Z,41.12
2023-02-11T16:39:32.622Z,41.28
2023-02-11T16:42:00.444Z,41.72
2023-02-11T16:44:28.207Z,41.91
2023-02-11T16:46:55.813Z,42.09
2023-02-11T16:49:51.926Z,42.27
2023-02-11T16:52:20.328Z,42.75
2023-02-11T16:54:46.969Z,42.81
2023-02-11T16:57:15.879Z,43.02
2023-02-11T16:59:43.097Z,43.12
2023-02-11T17:02:22.930Z,43.14
2023-02-11T17:04:52.815Z,43.30
2023-02-11T17:07:19.548Z,43.29
2023-02-11T17:09:46.223Z,43.51
2023-02-11T17:12:12.873Z,43.64
2023-02-11T17:14:39.562Z,43.76
2023-02-11T17:17:06.357Z,43.81
2023-02-11T17:19:33.011Z,43.89
2023-02-11T17:21:59.604Z,43.98
2023-02-11T17:24:26.223Z,44.06
2023-02-11T17:26:52.996Z,44.26
2023-02-11T17:29:23.224Z,44.42
2023-02-11T17:31:53.927Z,44.61
2023-02-11T17:34:22.672Z,44.73
2023-02-11T17:36:49.443Z,44.78
2023-02-11T17:39:16.339Z,44.86
2023-02-11T17:41:43.023Z,45.04
2023-02-11T17:44:12.574Z,45.00
2023-02-11T17:46:39.442Z,45.13
2023-02-11T17:49:06.147Z,45.16
2023-02-11T17:51:35.086Z,45.25
2023-02-11T17:54:04.937Z,45.32
2023-02-11T17:56:33.271Z,45.47
2023-02-11T17:59:00.010Z,45.37
2023-02-11T18:01:28.144Z,45.40
2023-02-11T18:03:54.947Z,45.58
2023-02-11T18:06:21.963Z,45.65
2023-02-11T18:08:49.193Z,45.74
2023-02-11T18:11:16.438Z,45.81
2023-02-11T18:13:51.541Z,45.87
2023-02-11T18:16:18.292Z,45.93
2023-02-11T18:18:44.992Z,46.01
2023-02-11T18:21:16.157Z,46.02
2023-02-11T18:23:43.885Z,46.00
2023-02-11T18:26:12.792Z,46.08
2023-02-11T18:28:39.963Z,46.07
2023-02-11T18:31:07.979Z,46.07
2023-02-11T18:33:37.244Z,46.11
2023-02-11T18:36:08.804Z,46.33
2023-02-11T18:38:36.260Z,46.29
2023-02-11T18:41:04.186Z,46.36
2023-02-11T18:43:33.829Z,46.42
2023-02-11T18:46:02.185Z,46.51
2023-02-11T18:48:29.205Z,46.61
2023-02-11T18:50:56.077Z,46.65
2023-02-11T18:53:25.076Z,46.69
2023-02-11T18:55:53.710Z,46.90
2023-02-11T18:58:21.465Z,46.90
2023-02-11T19:00:49.244Z,46.98
2023-02-11T19:03:16.638Z,47.11
2023-02-11T19:05:48.850Z,47.16
2023-02-11T19:08:15.969Z,47.24
2023-02-11T19:10:44.861Z,47.62
2023-02-11T19:13:12.681Z,47.43
2023-02-11T19:15:46.348Z,47.55
2023-02-11T19:18:15.033Z,47.70
2023-02-11T19:20:43.463Z,47.70
2023-02-11T19:23:11.064Z,47.91
2023-02-11T19:25:38.236Z,47.79
2023-02-11T19:28:04.939Z,48.03
2023-02-11T19:30:31.811Z,48.06
2023-02-11T19:32:58.429Z,48.13
2023-02-11T19:35:25.606Z,48.14
2023-02-11T19:37:52.315Z,48.32
2023-02-11T19:40:21.227Z,48.26
2023-02-11T19:42:50.673Z,48.41
2023-02-11T19:45:17.481Z,48.59
2023-02-11T19:47:44.469Z,48.59
2023-02-11T19:50:11.624Z,48.68
2023-02-11T19:52:39.090Z,48.97
2023-02-11T19:55:06.394Z,48.95
2023-02-11T19:57:33.078Z,49.16
2023-02-11T19:59:59.759Z,49.10
2023-02-11T20:02:26.410Z,49.24
2023-02-11T20:04:53.096Z,49.24
2023-02-11T20:07:19.762Z,49.28
2023-02-11T20:09:46.364Z,49.34
2023-02-11T20:12:13.132Z,49.45
2023-02-11T20:14:39.750Z,49.37
2023-02-11T20:17:06.492Z,49.43
2023-02-11T20:19:33.143Z,49.48
2023-02-11T20:21:59.747Z,49.69
2023-02-11T20:24:26.590Z,49.65
2023-02-11T20:26:56.051Z,49.83
2023-02-11T20:29:24.515Z,49.85
2023-02-11T20:31:51.259Z,49.71
2023-02-11T20:34:18.297Z,49.85
2023-02-11T20:36:51.965Z,50.03
2023-02-11T20:39:22.025Z,50.10
2023-02-11T20:41:50.241Z,50.19
2023-02-11T20:44:16.908Z,50.42
2023-02-11T20:46:46.839Z,50.37
2023-02-11T20:49:22.539Z,50.77
2023-02-11T20:51:50.100Z,50.63
2023-02-11T20:54:19.424Z,50.81
2023-02-11T20:56:48.180Z,50.82
2023-02-11T20:59:16.904Z,50.97
2023-02-11T21:01:46.509Z,51.02
2023-02-11T21:04:18.547Z,51.44
2023-02-11T21:06:47.908Z,51.34
2023-02-11T21:09:17.431Z,50.96
2023-02-11T21:11:44.125Z,51.26
2023-02-11T21:14:12.634Z,51.15
2023-02-11T21:16:40.121Z,51.41
2023-02-11T21:19:07.557Z,51.42
2023-02-11T21:21:38.886Z,51.57
2023-02-11T21:24:06.914Z,51.59
2023-02-11T21:26:35.487Z,51.81
2023-02-11T21:29:03.983Z,51.67
2023-02-11T21:31:32.470Z,51.82
2023-02-11T21:34:02.083Z,52.05
2023-02-11T21:36:29.801Z,52.00
2023-02-11T21:38:56.756Z,52.02
2023-02-11T21:41:24.870Z,52.20
2023-02-11T21:43:52.336Z,52.04
2023-02-11T21:46:20.502Z,52.02
2023-02-11T21:48:48.191Z,52.24
2023-02-11T21:51:18.850Z,52.16
2023-02-11T21:53:46.002Z,52.17
2023-02-11T21:56:15.321Z,52.23
2023-02-11T21:58:42.310Z,52.27
2023-02-11T22:01:20.251Z,52.41
2023-02-11T22:03:47.319Z,52.50
2023-02-11T22:06:17.534Z,52.09
2023-02-11T22:08:44.758Z,52.58
2023-02-11T22:11:13.365Z,52.48
2023-02-11T22:13:41.380Z,52.29
2023-02-11T22:16:11.325Z,52.57
2023-02-11T22:18:38.327Z,52.73
2023-02-11T22:21:07.340Z,52.76
2023-02-11T22:23:34.670Z,52.94
2023-02-11T22:26:05.886Z,53.03
2023-02-11T22:28:33.081Z,53.12
2023-02-11T22:31:00.202Z,53.09
2023-02-11T22:33:28.682Z,53.28
2023-02-11T22:36:04.693Z,53.22
2023-02-11T22:38:33.255Z,53.56
2023-02-11T22:41:05.087Z,53.20
2023-02-11T22:43:31.927Z,53.37
2023-02-11T22:46:03.250Z,53.46
2023-02-11T22:48:30.390Z,53.23
2023-02-11T22:50:57.161Z,53.35
2023-02-11T22:53:25.646Z,53.51
2023-02-11T22:55:52.605Z,53.62
2023-02-11T22:58:19.432Z,53.74
2023-02-11T23:00:46.077Z,53.82
2023-02-11T23:03:13.469Z,53.75
2023-02-11T23:05:41.900Z,53.59
2023-02-11T23:08:10.708Z,53.73
2023-02-11T23:10:39.820Z,53.65
2023-02-11T23:13:07.707Z,53.80
2023-02-11T23:15:38.535Z,53.88
2023-02-11T23:18:05.461Z,53.76
2023-02-11T23:20:35.438Z,53.80
2023-02-11T23:23:03.072Z,53.95
2023-02-11T23:25:30.261Z,53.82
2023-02-11T23:27:57.658Z,54.10
2023-02-11T23:30:24.760Z,54.11
2023-02-11T23:32:52.328Z,54.16
2023-02-11T23:35:24.900Z,54.11
2023-02-11T23:37:54.174Z,54.20
2023-02-11T23:40:22.733Z,54.20
2023-02-11T23:42:49.336Z,54.57
2023-02-11T23:45:16.030Z,54.42
2023-02-11T23:47:42.716Z,54.43
2023-02-11T23:50:10.199Z,54.47
2023-02-11T23:52:37.562Z,54.75
2023-02-11T23:55:05.051Z,54.80
2023-02-11T23:57:33.024Z,54.66
2023-02-11T23:59:59.669Z,54.69
